createdAt,value
2023-03-10T00:00:18.595Z,931.03
2023-03-10T00:01:18.584Z,931.03
2023-03-10T00:02:18.589Z,931.02
2023-03-10T00:03:18.630Z,931.06
2023-03-10T00:04:18.715Z,931.12
2023-03-10T00:05:18.710Z,931.07
2023-03-10T00:06:18.648Z,931.11
2023-03-10T00:07:18.652Z,931.15
2023-03-10T00:08:18.654Z,931.11
2023-03-10T00:09:18.686Z,931.13
2023-03-10T00:10:18.689Z,931.11
2023-03-10T00:11:18.719Z,931.11
2023-03-10T00:12:18.726Z,931.09
2023-03-10T00:13:18.734Z,931.09
2023-03-10T00:14:18.745Z,931.08
2023-03-10T00:15:18.767Z,931.09
2023-03-10T00:16:18.853Z,931.09
2023-03-10T00:17:18.774Z,931.10
2023-03-10T00:18:18.778Z,931.11
2023-03-10T00:19:18.796Z,931.08
2023-03-10T00:20:18.811Z,931.10
2023-03-10T00:21:18.822Z,931.10
2023-03-10T00:22:18.821Z,931.11
2023-03-10T00:23:18.848Z,931.13
2023-03-10T00:24:18.838Z,931.12
2023-03-10T00:25:18.873Z,931.11
2023-03-10T00:26:18.880Z,931.11
2023-03-10T00:27:18.890Z,931.06
2023-03-10T00:28:18.902Z,931.02
2023-03-10T00:29:18.917Z,931.04
2023-03-10T00:30:18.909Z,931.06
2023-03-10T00:31:18.971Z,931.05
2023-03-10T00:32:19.002Z,931.08
2023-03-10T00:33:18.965Z,931.06
2023-03-10T00:34:18.970Z,931.09
2023-03-10T00:35:19.017Z,931.06
2023-03-10T00:36:19.009Z,931.06
2023-03-10T00:37:19.019Z,931.04
2023-03-10T00:38:19.010Z,931.07
2023-03-10T00:39:19.038Z,931.05
2023-03-10T00:40:19.040Z,931.01
2023-03-10T00:41:19.078Z,931.02
2023-03-10T00:42:19.062Z,931.01
2023-03-10T00:43:19.077Z,930.99
2023-03-10T00:44:19.085Z,930.94
2023-03-10T00:45:19.093Z,930.97
2023-03-10T00:46:19.152Z,930.92
2023-03-10T00:47:19.133Z,930.93
2023-03-10T00:48:19.126Z,930.90
2023-03-10T00:49:19.157Z,930.87
2023-03-10T00:50:19.153Z,930.89
2023-03-10T00:51:19.172Z,930.84
2023-03-10T00:52:19.165Z,930.81
2023-03-10T00:53:19.196Z,930.84
2023-03-10T00:54:19.196Z,930.81
2023-03-10T00:55:19.223Z,930.79
2023-03-10T00:56:19.215Z,930.80
2023-03-10T00:57:19.248Z,930.77
2023-03-10T00:58:19.235Z,930.81
2023-03-10T00:59:19.266Z,930.74
2023-03-10T01:00:19.256Z,930.75
2023-03-10T01:01:19.316Z,930.75
2023-03-10T01:02:19.332Z,930.73
2023-03-10T01:03:19.313Z,930.72
2023-03-10T01:04:19.357Z,930.69
2023-03-10T01:05:19.352Z,930.68
2023-03-10T01:06:19.362Z,930.64
2023-03-10T01:07:19.356Z,930.64
2023-03-10T01:08:19.359Z,930.62
2023-03-10T01:09:19.385Z,930.60
2023-03-10T01:10:19.384Z,930.62
2023-03-10T01:11:19.393Z,930.58
2023-03-10T01:12:19.413Z,930.60
2023-03-10T01:13:19.419Z,930.58
2023-03-10T01:14:19.435Z,930.62
2023-03-10T01:15:19.435Z,930.64
2023-03-10T01:16:19.493Z,930.63
2023-03-10T01:17:19.455Z,930.63
2023-03-10T01:18:19.502Z,930.63
2023-03-10T01:19:19.474Z,930.60
2023-03-10T01:20:19.508Z,930.64
2023-03-10T01:21:19.504Z,930.62
2023-03-10T01:22:19.514Z,930.60
2023-03-10T01:23:19.526Z,930.61
2023-03-10T01:24:19.552Z,930.58
2023-03-10T01:25:19.550Z,930.61
2023-03-10T01:26:19.574Z,930.58
2023-03-10T01:27:19.575Z,930.60
2023-03-10T01:28:19.613Z,930.63
2023-03-10T01:29:19.608Z,930.60
2023-03-10T01:30:19.621Z,930.58
2023-03-10T01:31:19.671Z,930.57
2023-03-10T01:32:19.715Z,930.57
2023-03-10T01:33:19.642Z,930.62
2023-03-10T01:34:19.661Z,930.61
2023-03-10T01:35:19.665Z,930.61
2023-03-10T01:36:19.683Z,930.60
2023-03-10T01:37:19.696Z,930.57
2023-03-10T01:38:19.715Z,930.58
2023-03-10T01:39:19.712Z,930.57
2023-03-10T01:40:19.728Z,930.57
2023-03-10T01:41:19.732Z,930.54
2023-03-10T01:42:19.762Z,930.52
2023-03-10T01:43:19.769Z,930.52
2023-03-10T01:44:19.786Z,930.48
2023-03-10T01:45:19.779Z,930.47
2023-03-10T01:46:19.851Z,930.51
2023-03-10T01:47:19.801Z,930.53
2023-03-10T01:48:19.823Z,930.51
2023-03-10T01:49:19.821Z,930.52
2023-03-10T01:50:19.851Z,930.55
2023-03-10T01:51:19.847Z,930.58
2023-03-10T01:52:19.859Z,930.56
2023-03-10T01:53:19.858Z,930.58
2023-03-10T01:54:19.887Z,930.55
2023-03-10T01:55:19.884Z,930.53
2023-03-10T01:56:19.908Z,930.59
2023-03-10T01:57:19.914Z,930.59
2023-03-10T01:58:19.932Z,930.61
2023-03-10T01:59:19.936Z,930.61
2023-03-10T02:00:19.964Z,930.61
2023-03-10T02:01:20.002Z,930.64
2023-03-10T02:02:20.065Z,930.66
2023-03-10T02:03:19.988Z,930.68
2023-03-10T02:04:20.002Z,930.70
2023-03-10T02:05:20.011Z,930.69
2023-03-10T02:06:20.026Z,930.66
2023-03-10T02:07:20.027Z,930.74
2023-03-10T02:08:20.054Z,930.72
2023-03-10T02:09:20.075Z,930.72
2023-03-10T02:10:20.097Z,930.77
2023-03-10T02:11:20.080Z,930.81
2023-03-10T02:12:20.097Z,930.79
2023-03-10T02:13:20.115Z,930.84
2023-03-10T02:14:20.128Z,930.83
2023-03-10T02:15:20.126Z,930.84
2023-03-10T02:16:20.191Z,930.84
2023-03-10T02:17:20.240Z,930.87
2023-03-10T02:18:20.171Z,930.87
2023-03-10T02:19:20.172Z,930.87
2023-03-10T02:20:20.191Z,930.87
2023-03-10T02:21:20.182Z,930.91
2023-03-10T02:22:20.214Z,930.92
2023-03-10T02:23:20.231Z,930.93
2023-03-10T02:24:20.236Z,930.98
2023-03-10T02:25:20.245Z,930.98
2023-03-10T02:26:20.253Z,931.00
2023-03-10T02:27:20.266Z,931.03
2023-03-10T02:28:20.285Z,931.06
2023-03-10T02:29:20.288Z,931.05
2023-03-10T02:30:20.318Z,931.08
2023-03-10T02:31:20.372Z,931.07
2023-03-10T02:32:20.352Z,931.06
2023-03-10T02:33:20.337Z,931.09
2023-03-10T02:34:20.344Z,931.10
2023-03-10T02:35:20.360Z,931.11
2023-03-10T02:36:20.389Z,931.16
2023-03-10T02:37:20.379Z,931.15
2023-03-10T02:38:20.403Z,931.13
2023-03-10T02:39:20.408Z,931.13
2023-03-10T02:40:20.432Z,931.16
2023-03-10T02:41:20.418Z,931.15
2023-03-10T02:42:20.451Z,931.15
2023-03-10T02:43:20.454Z,931.16
2023-03-10T02:44:20.481Z,931.17
2023-03-10T02:45:20.486Z,931.13
2023-03-10T02:46:20.542Z,931.15
2023-03-10T02:47:20.502Z,931.12
2023-03-10T02:48:20.516Z,931.14
2023-03-10T02:49:20.520Z,931.13
2023-03-10T02:50:20.534Z,931.13
2023-03-10T02:51:20.571Z,931.15
2023-03-10T02:52:20.561Z,931.12
2023-03-10T02:53:20.578Z,931.12
2023-03-10T02:54:20.573Z,931.15
2023-03-10T02:55:20.592Z,931.17
2023-03-10T02:56:20.617Z,931.18
2023-03-10T02:57:20.610Z,931.21
2023-03-10T02:58:20.635Z,931.25
2023-03-10T02:59:20.646Z,931.24
2023-03-10T03:00:20.665Z,931.24
2023-03-10T03:01:20.690Z,931.27
2023-03-10T03:02:20.679Z,931.29
2023-03-10T03:03:20.675Z,931.26
2023-03-10T03:04:20.783Z,931.27
2023-03-10T03:05:20.722Z,931.24
2023-03-10T03:06:20.712Z,931.25
2023-03-10T03:07:20.731Z,931.26
2023-03-10T03:08:20.752Z,931.24
2023-03-10T03:09:20.758Z,931.22
2023-03-10T03:10:20.777Z,931.21
2023-03-10T03:11:20.782Z,931.20
2023-03-10T03:12:20.801Z,931.19
2023-03-10T03:13:20.807Z,931.17
2023-03-10T03:14:20.821Z,931.15
2023-03-10T03:15:20.828Z,931.19
2023-03-10T03:16:20.870Z,931.17
2023-03-10T03:17:20.849Z,931.16
2023-03-10T03:18:20.871Z,931.17
2023-03-10T03:19:20.857Z,931.12
2023-03-10T03:20:20.889Z,931.15
2023-03-10T03:21:20.891Z,931.15
2023-03-10T03:22:20.922Z,931.12
2023-03-10T03:23:20.917Z,931.14
2023-03-10T03:24:20.948Z,931.12
2023-03-10T03:25:20.939Z,931.11
2023-03-10T03:26:20.972Z,931.13
2023-03-10T03:27:20.961Z,931.09
2023-03-10T03:28:20.969Z,931.09
2023-03-10T03:29:20.984Z,931.07
2023-03-10T03:30:22.186Z,931.02
2023-03-10T03:31:21.030Z,931.04
2023-03-10T03:32:21.083Z,931.00
2023-03-10T03:33:21.037Z,931.01
2023-03-10T03:34:21.052Z,931.01
2023-03-10T03:35:21.065Z,931.02
2023-03-10T03:36:21.080Z,931.02
2023-03-10T03:37:21.081Z,931.06
2023-03-10T03:38:21.206Z,931.03
2023-03-10T03:39:21.144Z,931.04
2023-03-10T03:40:21.128Z,931.03
2023-03-10T03:41:21.125Z,931.08
2023-03-10T03:42:21.151Z,931.05
2023-03-10T03:43:21.149Z,931.02
2023-03-10T03:44:21.162Z,931.05
2023-03-10T03:45:21.175Z,931.07
2023-03-10T03:46:21.282Z,931.06
2023-03-10T03:47:21.184Z,931.07
2023-03-10T03:48:22.501Z,931.08
2023-03-10T03:49:21.221Z,931.09
2023-03-10T03:50:21.247Z,931.07
2023-03-10T03:51:21.258Z,931.07
2023-03-10T03:52:21.274Z,931.09
2023-03-10T03:53:21.267Z,931.08
2023-03-10T03:54:21.319Z,931.07
2023-03-10T03:55:21.292Z,931.03
2023-03-10T03:56:21.322Z,931.05
2023-03-10T03:57:21.313Z,931.04
2023-03-10T03:58:21.336Z,931.02
2023-03-10T03:59:21.345Z,930.98
2023-03-10T04:00:21.364Z,931.01
2023-03-10T04:01:21.368Z,931.00
2023-03-10T04:02:21.410Z,930.97
2023-03-10T04:03:21.427Z,930.97
2023-03-10T04:04:21.404Z,930.99
2023-03-10T04:05:21.418Z,930.94
2023-03-10T04:06:21.440Z,930.97
2023-03-10T04:07:21.432Z,930.96
2023-03-10T04:08:21.457Z,930.95
2023-03-10T04:09:21.457Z,930.96
2023-03-10T04:10:21.477Z,930.92
2023-03-10T04:11:21.473Z,930.92
2023-03-10T04:12:21.493Z,930.93
2023-03-10T04:13:21.516Z,930.91
2023-03-10T04:14:21.539Z,930.91
2023-03-10T04:15:21.538Z,930.90
2023-03-10T04:16:21.615Z,930.92
2023-03-10T04:17:21.554Z,930.88
2023-03-10T04:18:21.572Z,930.88
2023-03-10T04:19:21.582Z,930.85
2023-03-10T04:20:21.607Z,930.86
2023-03-10T04:21:21.600Z,930.85
2023-03-10T04:22:21.630Z,930.84
2023-03-10T04:23:21.613Z,930.80
2023-03-10T04:24:21.636Z,930.76
2023-03-10T04:25:21.643Z,930.78
2023-03-10T04:26:21.679Z,930.76
2023-03-10T04:27:21.670Z,930.78
2023-03-10T04:28:21.682Z,930.77
2023-03-10T04:29:21.698Z,930.77
2023-03-10T04:30:21.717Z,930.75
2023-03-10T04:31:21.772Z,930.75
2023-03-10T04:32:21.797Z,930.74
2023-03-10T04:33:21.749Z,930.74
2023-03-10T04:34:21.767Z,930.74
2023-03-10T04:35:21.778Z,930.73
2023-03-10T04:36:21.783Z,930.73
2023-03-10T04:37:21.796Z,930.75
2023-03-10T04:38:21.806Z,930.79
2023-03-10T04:39:21.814Z,930.77
2023-03-10T04:40:21.836Z,930.73
2023-03-10T04:41:21.857Z,930.69
2023-03-10T04:42:21.856Z,930.69
2023-03-10T04:43:21.870Z,930.68
2023-03-10T04:44:30.965Z,930.69
2023-03-10T04:45:21.888Z,930.68
2023-03-10T04:46:22.020Z,930.70
2023-03-10T04:47:21.902Z,930.69
2023-03-10T04:48:21.914Z,930.66
2023-03-10T04:49:21.930Z,930.67
2023-03-10T04:50:21.942Z,930.65
2023-03-10T04:51:21.958Z,930.61
2023-03-10T04:52:21.977Z,930.63
2023-03-10T04:53:21.996Z,930.63
2023-03-10T04:54:21.995Z,930.60
2023-03-10T04:55:22.013Z,930.63
2023-03-10T04:56:22.024Z,930.57
2023-03-10T04:57:22.025Z,930.57
2023-03-10T04:58:22.046Z,930.54
2023-03-10T04:59:22.042Z,930.52
2023-03-10T05:00:22.109Z,930.48
2023-03-10T05:01:22.115Z,930.46
2023-03-10T05:02:22.091Z,930.49
2023-03-10T05:03:22.082Z,930.44
2023-03-10T05:04:22.179Z,930.43
2023-03-10T05:05:22.104Z,930.44
2023-03-10T05:06:22.156Z,930.45
2023-03-10T05:07:22.144Z,930.46
2023-03-10T05:08:22.170Z,930.44
2023-03-10T05:09:22.173Z,930.46
2023-03-10T05:10:22.173Z,930.45
2023-03-10T05:11:22.188Z,930.39
2023-03-10T05:12:22.209Z,930.35
2023-03-10T05:13:22.260Z,930.28
2023-03-10T05:14:22.235Z,930.32
2023-03-10T05:15:22.217Z,930.30
2023-03-10T05:16:22.309Z,930.30
2023-03-10T05:17:22.259Z,930.27
2023-03-10T05:18:22.283Z,930.29
2023-03-10T05:19:22.283Z,930.32
2023-03-10T05:20:22.302Z,930.31
2023-03-10T05:21:22.298Z,930.34
2023-03-10T05:22:22.309Z,930.32
2023-03-10T05:23:22.324Z,930.32
2023-03-10T05:24:22.344Z,930.32
2023-03-10T05:25:22.342Z,930.30
2023-03-10T05:26:22.352Z,930.29
2023-03-10T05:27:22.372Z,930.31
2023-03-10T05:28:22.366Z,930.30
2023-03-10T05:29:22.397Z,930.30
2023-03-10T05:30:22.400Z,930.29
2023-03-10T05:31:22.461Z,930.27
2023-03-10T05:32:22.578Z,930.25
2023-03-10T05:33:22.442Z,930.25
2023-03-10T05:34:22.449Z,930.24
2023-03-10T05:35:22.466Z,930.25
2023-03-10T05:36:22.472Z,930.27
2023-03-10T05:37:22.480Z,930.26
2023-03-10T05:38:22.491Z,930.25
2023-03-10T05:39:22.520Z,930.24
2023-03-10T05:40:22.519Z,930.25
2023-03-10T05:41:22.538Z,930.24
2023-03-10T05:42:22.532Z,930.26
2023-03-10T05:43:22.566Z,930.28
2023-03-10T05:44:22.564Z,930.28
2023-03-10T05:45:22.589Z,930.28
2023-03-10T05:46:22.604Z,930.31
2023-03-10T05:47:22.615Z,930.30
2023-03-10T05:48:22.609Z,930.27
2023-03-10T05:49:22.632Z,930.27
2023-03-10T05:50:22.621Z,930.23
2023-03-10T05:51:22.658Z,930.22
2023-03-10T05:52:22.657Z,930.24
2023-03-10T05:53:22.684Z,930.27
2023-03-10T05:54:22.682Z,930.25
2023-03-10T05:55:22.699Z,930.23
2023-03-10T05:56:22.702Z,930.21
2023-03-10T05:57:22.708Z,930.20
2023-03-10T05:58:22.733Z,930.21
2023-03-10T05:59:22.733Z,930.19
2023-03-10T06:00:22.739Z,930.15
2023-03-10T06:01:22.793Z,930.15
2023-03-10T06:02:22.755Z,930.12
2023-03-10T06:03:22.955Z,930.12
2023-03-10T06:04:22.951Z,930.09
2023-03-10T06:05:22.816Z,930.11
2023-03-10T06:06:22.828Z,930.12
2023-03-10T06:07:22.839Z,930.10
2023-03-10T06:08:22.837Z,930.09
2023-03-10T06:09:22.874Z,930.09
2023-03-10T06:10:22.873Z,930.06
2023-03-10T06:11:22.878Z,930.10
2023-03-10T06:12:22.872Z,930.10
2023-03-10T06:13:22.907Z,930.09
2023-03-10T06:14:22.894Z,930.11
2023-03-10T06:15:22.917Z,930.10
2023-03-10T06:16:23.014Z,930.09
2023-03-10T06:17:22.952Z,930.06
2023-03-10T06:18:22.958Z,930.03
2023-03-10T06:19:22.998Z,930.02
2023-03-10T06:20:22.976Z,930.00
2023-03-10T06:21:23.006Z,929.98
2023-03-10T06:22:23.004Z,930.00
2023-03-10T06:23:23.019Z,930.03
2023-03-10T06:24:23.022Z,930.02
2023-03-10T06:25:23.039Z,930.03
2023-03-10T06:26:23.027Z,930.01
2023-03-10T06:27:23.080Z,930.04
2023-03-10T06:28:23.050Z,930.03
2023-03-10T06:29:23.079Z,929.96
2023-03-10T06:30:23.090Z,929.98
2023-03-10T06:31:23.209Z,929.97
2023-03-10T06:32:23.155Z,929.98
2023-03-10T06:33:23.139Z,929.96
2023-03-10T06:34:23.124Z,930.01
2023-03-10T06:35:23.147Z,930.03
2023-03-10T06:36:23.146Z,930.02
2023-03-10T06:37:23.179Z,930.01
2023-03-10T06:38:23.183Z,930.02
2023-03-10T06:39:23.198Z,930.02
2023-03-10T06:40:23.203Z,929.99
2023-03-10T06:41:23.209Z,929.96
2023-03-10T06:42:23.218Z,929.97
2023-03-10T06:43:23.248Z,930.00
2023-03-10T06:44:23.240Z,930.02
2023-03-10T06:45:23.260Z,929.96
2023-03-10T06:46:23.306Z,929.96
2023-03-10T06:47:23.294Z,929.99
2023-03-10T06:48:23.300Z,929.96
2023-03-10T06:49:23.316Z,929.92
2023-03-10T06:50:23.322Z,929.92
2023-03-10T06:51:23.345Z,929.89
2023-03-10T06:52:23.366Z,929.88
2023-03-10T06:53:23.351Z,929.88
2023-03-10T06:54:23.362Z,929.86
2023-03-10T06:55:23.382Z,929.84
2023-03-10T06:56:23.376Z,929.84
2023-03-10T06:57:23.395Z,929.82
2023-03-10T06:58:23.400Z,929.82
2023-03-10T06:59:23.425Z,929.83
2023-03-10T07:00:23.432Z,929.81
2023-03-10T07:01:23.508Z,929.80
2023-03-10T07:02:23.455Z,929.81
2023-03-10T07:03:23.470Z,929.82
2023-03-10T07:04:23.507Z,929.83
2023-03-10T07:05:23.494Z,929.81
2023-03-10T07:06:23.494Z,929.83
2023-03-10T07:07:23.512Z,929.79
2023-03-10T07:08:23.518Z,929.79
2023-03-10T07:09:23.528Z,929.76
2023-03-10T07:10:23.528Z,929.78
2023-03-10T07:11:23.554Z,929.83
2023-03-10T07:12:23.561Z,929.76
2023-03-10T07:13:23.576Z,929.76
2023-03-10T07:14:23.592Z,929.75
2023-03-10T07:15:23.593Z,929.76
2023-03-10T07:16:23.709Z,929.74
2023-03-10T07:17:23.622Z,929.77
2023-03-10T07:18:23.620Z,929.76
2023-03-10T07:19:23.648Z,929.77
2023-03-10T07:20:23.642Z,929.74
2023-03-10T07:21:23.668Z,929.73
2023-03-10T07:22:23.676Z,929.75
2023-03-10T07:23:23.697Z,929.76
2023-03-10T07:24:23.698Z,929.74
2023-03-10T07:25:23.702Z,929.76
2023-03-10T07:26:23.713Z,929.74
2023-03-10T07:27:23.744Z,929.73
2023-03-10T07:28:23.737Z,929.72
2023-03-10T07:29:23.745Z,929.74
2023-03-10T07:30:23.765Z,929.74
2023-03-10T07:31:23.879Z,929.73
2023-03-10T07:32:23.808Z,929.73
2023-03-10T07:33:23.850Z,929.74
2023-03-10T07:34:23.799Z,929.74
2023-03-10T07:35:23.813Z,929.74
2023-03-10T07:36:23.907Z,929.72
2023-03-10T07:37:23.844Z,929.73
2023-03-10T07:38:23.857Z,929.75
2023-03-10T07:39:23.871Z,929.77
2023-03-10T07:40:23.871Z,929.79
2023-03-10T07:41:23.890Z,929.79
2023-03-10T07:42:23.894Z,929.81
2023-03-10T07:43:23.917Z,929.80
2023-03-10T07:44:23.917Z,929.81
2023-03-10T07:45:23.954Z,929.79
2023-03-10T07:46:23.997Z,929.76
2023-03-10T07:47:23.969Z,929.79
2023-03-10T07:48:23.957Z,929.78
2023-03-10T07:49:23.987Z,929.78
2023-03-10T07:50:23.977Z,929.72
2023-03-10T07:51:23.999Z,929.72
2023-03-10T07:52:24.005Z,929.72
2023-03-10T07:53:24.028Z,929.67
2023-03-10T07:54:24.018Z,929.69
2023-03-10T07:55:24.041Z,929.70
2023-03-10T07:56:24.055Z,929.70
2023-03-10T07:57:24.080Z,929.68
2023-03-10T07:58:24.063Z,929.70
2023-03-10T07:59:24.085Z,929.76
2023-03-10T08:00:24.113Z,929.77
2023-03-10T08:01:24.120Z,929.78
2023-03-10T08:02:24.119Z,929.77
2023-03-10T08:03:24.212Z,929.75
2023-03-10T08:04:24.292Z,929.79
2023-03-10T08:05:24.219Z,929.77
2023-03-10T08:06:24.167Z,929.79
2023-03-10T08:07:24.179Z,929.77
2023-03-10T08:08:24.193Z,929.81
2023-03-10T08:09:24.215Z,929.80
2023-03-10T08:10:24.215Z,929.81
2023-03-10T08:11:24.225Z,929.82
2023-03-10T08:12:24.221Z,929.85
2023-03-10T08:13:24.287Z,929.86
2023-03-10T08:14:24.252Z,929.85
2023-03-10T08:15:24.284Z,929.91
2023-03-10T08:16:24.370Z,929.89
2023-03-10T08:17:24.286Z,929.94
2023-03-10T08:18:24.291Z,929.94
2023-03-10T08:19:24.319Z,929.95
2023-03-10T08:20:24.319Z,929.96
2023-03-10T08:21:24.338Z,930.01
2023-03-10T08:22:24.335Z,929.97
2023-03-10T08:23:24.370Z,929.96
2023-03-10T08:24:24.360Z,929.99
2023-03-10T08:25:24.387Z,930.01
2023-03-10T08:26:24.387Z,930.06
2023-03-10T08:27:24.414Z,930.04
2023-03-10T08:28:24.416Z,930.06
2023-03-10T08:29:24.419Z,930.01
2023-03-10T08:30:24.432Z,930.01
2023-03-10T08:31:24.491Z,930.00
2023-03-10T08:32:24.475Z,929.98
2023-03-10T08:33:24.477Z,930.01
2023-03-10T08:34:24.470Z,929.99
2023-03-10T08:35:24.498Z,930.00
2023-03-10T08:36:24.527Z,930.00
2023-03-10T08:37:24.521Z,930.03
2023-03-10T08:38:24.525Z,930.01
2023-03-10T08:39:26.613Z,929.95
2023-03-10T08:40:24.536Z,929.96
2023-03-10T08:41:24.581Z,929.98
2023-03-10T08:42:24.573Z,930.02
2023-03-10T08:43:24.587Z,929.99
2023-03-10T08:44:24.582Z,929.99
2023-03-10T08:45:24.614Z,930.01
2023-03-10T08:46:24.677Z,930.00
2023-03-10T08:47:26.404Z,929.99
2023-03-10T08:48:24.640Z,929.99
2023-03-10T08:49:24.668Z,930.04
2023-03-10T08:50:24.657Z,930.02
2023-03-10T08:51:24.684Z,930.08
2023-03-10T08:52:24.684Z,930.07
2023-03-10T08:53:24.695Z,930.11
2023-03-10T08:54:24.698Z,930.08
2023-03-10T08:55:24.724Z,930.07
2023-03-10T08:56:24.745Z,930.09
2023-03-10T08:57:24.743Z,930.08
2023-03-10T08:58:24.746Z,930.08
2023-03-10T08:59:24.776Z,930.08
2023-03-10T09:00:24.774Z,930.08
2023-03-10T09:01:24.795Z,930.11
2023-03-10T09:02:24.877Z,930.15
2023-03-10T09:03:24.848Z,930.20
2023-03-10T09:04:24.806Z,930.23
2023-03-10T09:05:24.837Z,930.25
2023-03-10T09:06:24.829Z,930.27
2023-03-10T09:07:24.862Z,930.27
2023-03-10T09:08:27.323Z,930.28
2023-03-10T09:09:24.883Z,930.25
2023-03-10T09:10:24.898Z,930.28
2023-03-10T09:11:24.911Z,930.30
2023-03-10T09:12:25.781Z,930.33
2023-03-10T09:13:24.923Z,930.33
2023-03-10T09:14:24.930Z,930.30
2023-03-10T09:15:24.955Z,930.29
2023-03-10T09:16:25.013Z,930.28
2023-03-10T09:17:24.964Z,930.25
2023-03-10T09:18:24.969Z,930.28
2023-03-10T09:19:25.001Z,930.27
2023-03-10T09:20:25.061Z,930.29
2023-03-10T09:21:25.020Z,930.35
2023-03-10T09:22:25.021Z,930.34
2023-03-10T09:23:25.032Z,930.34
2023-03-10T09:24:25.032Z,930.35
2023-03-10T09:25:25.064Z,930.37
2023-03-10T09:26:25.065Z,930.36
2023-03-10T09:27:25.086Z,930.35
2023-03-10T09:28:25.080Z,930.36
2023-03-10T09:29:41.755Z,930.40
2023-03-10T09:30:25.123Z,930.43
2023-03-10T09:31:25.187Z,930.41
2023-03-10T09:32:25.275Z,930.42
2023-03-10T09:33:25.158Z,930.43
2023-03-10T09:34:25.159Z,930.41
2023-03-10T09:35:25.189Z,930.42
2023-03-10T09:36:25.256Z,930.42
2023-03-10T09:37:25.211Z,930.47
2023-03-10T09:38:25.224Z,930.47
2023-03-10T09:39:25.231Z,930.47
2023-03-10T09:40:25.233Z,930.47
2023-03-10T09:41:25.248Z,930.46
2023-03-10T09:42:36.390Z,930.44
2023-03-10T09:43:25.271Z,930.46
2023-03-10T09:44:25.275Z,930.45
2023-03-10T09:45:25.292Z,930.49
2023-03-10T09:46:25.298Z,930.48
2023-03-10T09:47:25.316Z,930.50
2023-03-10T09:48:26.405Z,930.52
2023-03-10T09:49:25.329Z,930.53
2023-03-10T09:50:25.361Z,930.46
2023-03-10T09:51:25.366Z,930.47
2023-03-10T09:52:25.375Z,930.47
2023-03-10T09:53:25.391Z,930.47
2023-03-10T09:54:25.412Z,930.49
2023-03-10T09:55:25.430Z,930.51
2023-03-10T09:56:25.434Z,930.54
2023-03-10T09:57:25.432Z,930.50
2023-03-10T09:58:25.447Z,930.50
2023-03-10T09:59:25.461Z,930.51
2023-03-10T10:00:25.482Z,930.50
2023-03-10T10:01:25.479Z,930.48
2023-03-10T10:02:25.508Z,930.48
2023-03-10T10:03:25.576Z,930.50
2023-03-10T10:04:25.581Z,930.52
2023-03-10T10:05:25.537Z,930.52
2023-03-10T10:06:28.178Z,930.57
2023-03-10T10:07:25.573Z,930.56
2023-03-10T10:08:28.413Z,930.58
2023-03-10T10:09:25.580Z,930.60
2023-03-10T10:10:25.610Z,930.62
2023-03-10T10:11:25.619Z,930.60
2023-03-10T10:12:25.620Z,930.65
2023-03-10T10:13:25.625Z,930.64
2023-03-10T10:14:30.082Z,930.59
2023-03-10T10:15:25.674Z,930.66
2023-03-10T10:16:34.292Z,930.70
2023-03-10T10:17:25.804Z,930.73
2023-03-10T10:18:25.992Z,930.72
2023-03-10T10:19:25.705Z,930.77
2023-03-10T10:20:25.728Z,930.82
2023-03-10T10:21:28.119Z,930.82
2023-03-10T10:22:25.754Z,930.80
2023-03-10T10:23:25.764Z,930.81
2023-03-10T10:24:25.805Z,930.83
2023-03-10T10:25:25.801Z,930.84
2023-03-10T10:26:25.818Z,930.87
2023-03-10T10:27:25.827Z,930.87
2023-03-10T10:28:25.849Z,930.90
2023-03-10T10:29:25.846Z,930.87
2023-03-10T10:30:27.028Z,930.86
2023-03-10T10:31:26.031Z,930.86
2023-03-10T10:32:25.948Z,930.85
2023-03-10T10:33:25.916Z,930.84
2023-03-10T10:34:25.942Z,930.82
2023-03-10T10:35:25.959Z,930.84
2023-03-10T10:36:25.973Z,930.89
2023-03-10T10:37:26.002Z,930.90
2023-03-10T10:38:26.016Z,930.89
2023-03-10T10:39:28.038Z,930.88
2023-03-10T10:40:26.060Z,930.92
2023-03-10T10:41:26.033Z,930.94
2023-03-10T10:42:26.063Z,930.96
2023-03-10T10:43:26.072Z,930.94
2023-03-10T10:44:26.115Z,930.95
2023-03-10T10:45:26.106Z,930.94
2023-03-10T10:46:26.215Z,930.97
2023-03-10T10:47:26.150Z,931.00
2023-03-10T10:48:26.179Z,931.00
2023-03-10T10:49:26.206Z,931.03
2023-03-10T10:50:26.205Z,931.04
2023-03-10T10:51:26.210Z,931.03
2023-03-10T10:52:26.230Z,931.03
2023-03-10T10:53:26.251Z,930.97
2023-03-10T10:54:26.265Z,931.03
2023-03-10T10:55:26.348Z,931.06
2023-03-10T10:56:26.306Z,931.03
2023-03-10T10:57:26.317Z,931.04
2023-03-10T10:58:26.335Z,931.02
2023-03-10T10:59:26.357Z,931.01
2023-03-10T11:00:26.370Z,931.04
2023-03-10T11:01:26.455Z,931.02
2023-03-10T11:02:26.453Z,931.00
2023-03-10T11:03:26.429Z,931.02
2023-03-10T11:04:26.459Z,931.01
2023-03-10T11:05:26.451Z,931.03
2023-03-10T11:06:26.519Z,931.01
2023-03-10T11:07:26.519Z,931.05
2023-03-10T11:08:26.528Z,931.04
2023-03-10T11:09:26.537Z,931.04
2023-03-10T11:10:26.553Z,931.01
2023-03-10T11:11:26.575Z,931.03
2023-03-10T11:12:26.590Z,931.01
2023-03-10T11:13:26.609Z,931.03
2023-03-10T11:14:26.639Z,931.05
2023-03-10T11:15:26.687Z,931.03
2023-03-10T11:16:26.673Z,931.02
2023-03-10T11:17:26.688Z,931.04
2023-03-10T11:18:26.753Z,931.02
2023-03-10T11:19:26.717Z,931.07
2023-03-10T11:20:26.770Z,931.10
2023-03-10T11:21:26.767Z,931.09
2023-03-10T11:22:26.792Z,931.09
2023-03-10T11:23:26.806Z,931.13
2023-03-10T11:24:26.856Z,931.11
2023-03-10T11:25:26.850Z,931.15
2023-03-10T11:26:26.878Z,931.13
2023-03-10T11:27:26.872Z,931.13
2023-03-10T11:28:27.099Z,931.16
2023-03-10T11:29:26.977Z,931.15
2023-03-10T11:30:26.952Z,931.14
2023-03-10T11:31:27.025Z,931.16
2023-03-10T11:32:27.054Z,931.15
2023-03-10T11:33:26.999Z,931.14
2023-03-10T11:34:27.017Z,931.13
2023-03-10T11:35:27.047Z,931.11
2023-03-10T11:36:27.055Z,931.14
2023-03-10T11:37:27.074Z,931.16
2023-03-10T11:38:27.109Z,931.19
2023-03-10T11:39:27.120Z,931.22
2023-03-10T11:40:27.145Z,931.23
2023-03-10T11:41:27.165Z,931.24
2023-03-10T11:42:27.176Z,931.28
2023-03-10T11:43:27.193Z,931.27
2023-03-10T11:44:27.231Z,931.22
2023-03-10T11:45:27.246Z,931.26
2023-03-10T11:46:27.293Z,931.28
2023-03-10T11:47:27.316Z,931.28
2023-03-10T11:48:27.306Z,931.30
2023-03-10T11:49:27.364Z,931.31
2023-03-10T11:50:27.355Z,931.31
2023-03-10T11:51:27.377Z,931.32
2023-03-10T11:52:27.382Z,931.32
2023-03-10T11:53:27.392Z,931.39
2023-03-10T11:54:27.424Z,931.37
2023-03-10T11:55:27.439Z,931.44
2023-03-10T11:56:27.467Z,931.42
2023-03-10T11:57:27.478Z,931.44
2023-03-10T11:58:27.511Z,931.46
2023-03-10T11:59:27.531Z,931.50
2023-03-10T12:00:27.565Z,931.49
2023-03-10T12:01:27.566Z,931.51
2023-03-10T12:02:27.602Z,931.47
2023-03-10T12:03:27.654Z,931.49
2023-03-10T12:04:27.645Z,931.49
2023-03-10T12:05:27.758Z,931.49
2023-03-10T12:06:27.677Z,931.48
2023-03-10T12:07:27.701Z,931.55
2023-03-10T12:08:27.721Z,931.59
2023-03-10T12:09:27.747Z,931.56
2023-03-10T12:10:27.763Z,931.56
2023-03-10T12:11:27.789Z,931.58
2023-03-10T12:12:27.810Z,931.58
2023-03-10T12:13:27.824Z,931.62
2023-03-10T12:14:27.866Z,931.62
2023-03-10T12:15:27.871Z,931.66
2023-03-10T12:16:27.970Z,931.65
2023-03-10T12:17:27.931Z,931.69
2023-03-10T12:18:27.965Z,931.68
2023-03-10T12:19:27.972Z,931.70
2023-03-10T12:20:28.008Z,931.71
2023-03-10T12:21:28.027Z,931.73
2023-03-10T12:22:28.039Z,931.80
2023-03-10T12:23:28.057Z,931.77
2023-03-10T12:24:28.100Z,931.80
2023-03-10T12:25:28.142Z,931.81
2023-03-10T12:26:28.145Z,931.85
2023-03-10T12:27:28.172Z,931.95
2023-03-10T12:28:28.208Z,931.94